Time;durP1;ratioP1;P1;durP2;ratioP2;P2;SDS_P1;SDS_P2;PMS_P1;PMS_P2;Temp;Humidity;BMP_temperature;BMP_pressure;BME280_temperature;BME280_humidity;BME280_pressure;Samples;Min_cycle;Max_cycle;Signal;HPM_P1;HPM_P2
2022/05/30 00:00:07;;;;;;;6.25;4.15;;;;;;;4.91;75.85938;94739.33;;;;
2022/05/30 00:01:08;;;;;;;6.25;4.15;;;;;;;4.91;75.85938;94739.33;;;;
2022/05/30 00:02:11;;;;;;;6.25;4.15;;;;;;;4.91;75.85938;94739.33;;;;
2022/05/30 00:03:12;;;;;;;6.25;4.15;;;;;;;4.91;75.85938;94739.33;;;;
2022/05/30 00:04:13;;;;;;;6.25;4.15;;;;;;;4.91;75.85938;94739.33;;;;
2022/05/30 00:05:13;;;;;;;6.25;4.15;;;;;;;4.91;75.85938;94739.33;;;;
2022/05/30 00:06:15;;;;;;;6.25;4.15;;;;;;;4.91;75.85938;94739.33;;;;
2022/05/30 00:07:18;;;;;;;6.25;4.15;;;;;;;4.91;75.85938;94739.33;;;;
2022/05/30 00:08:19;;;;;;;6.25;4.15;;;;;;;4.91;75.85938;94739.33;;;;
2022/05/30 00:09:19;;;;;;;6.25;4.15;;;;;;;4.91;75.85938;94739.33;;;;
2022/05/30 00:10:20;;;;;;;6.25;4.15;;;;;;;4.91;75.85938;94739.33;;;;
2022/05/30 00:11:20;;;;;;;6.25;4.15;;;;;;;4.91;75.85938;94739.33;;;;
2022/05/30 00:12:22;;;;;;;6.25;4.15;;;;;;;4.91;75.85938;94739.33;;;;
2022/05/30 00:13:22;;;;;;;6.25;4.15;;;;;;;4.91;75.85938;94739.33;;;;
2022/05/30 00:14:23;;;;;;;6.25;4.15;;;;;;;4.91;75.85938;94739.33;;;;
2022/05/30 00:15:23;;;;;;;4.65;4.1;;;;;;;4.86;75.92285;94736.47;;;;
2022/05/30 00:16:24;;;;;;;4.65;4.1;;;;;;;4.86;75.92285;94736.47;;;;
2022/05/30 00:17:25;;;;;;;4.65;4.1;;;;;;;4.86;75.92285;94736.47;;;;
2022/05/30 00:18:26;;;;;;;4.65;4.1;;;;;;;4.86;75.92285;94736.47;;;;
2022/05/30 00:19:28;;;;;;;4.65;4.1;;;;;;;4.86;75.92285;94736.47;;;;
2022/05/30 00:20:28;;;;;;;4.65;4.1;;;;;;;4.86;75.92285;94736.47;;;;
2022/05/30 00:21:29;;;;;;;4.65;4.1;;;;;;;4.86;75.92285;94736.47;;;;
2022/05/30 00:22:30;;;;;;;4.65;4.1;;;;;;;4.86;75.92285;94736.47;;;;
2022/05/30 00:23:30;;;;;;;4.65;4.1;;;;;;;4.86;75.92285;94736.47;;;;
2022/05/30 00:24:32;;;;;;;4.65;4.1;;;;;;;4.86;75.92285;94736.47;;;;
2022/05/30 00:25:33;;;;;;;4.65;4.1;;;;;;;4.86;75.92285;94736.47;;;;
2022/05/30 00:26:33;;;;;;;5.100001;4.299999;;;;;;;4.79;76.03906;94724.72;;;;
2022/05/30 00:27:34;;;;;;;5.100001;4.299999;;;;;;;4.79;76.03906;94724.72;;;;
2022/05/30 00:28:34;;;;;;;5.100001;4.299999;;;;;;;4.79;76.03906;94724.72;;;;
2022/05/30 00:29:35;;;;;;;5.100001;4.299999;;;;;;;4.79;76.03906;94724.72;;;;
2022/05/30 00:30:36;;;;;;;5.100001;4.299999;;;;;;;4.79;76.03906;94724.72;;;;
2022/05/30 00:31:37;;;;;;;5.100001;4.299999;;;;;;;4.79;76.03906;94724.72;;;;
2022/05/30 00:32:37;;;;;;;5.100001;4.299999;;;;;;;4.79;76.03906;94724.72;;;;
2022/05/30 00:33:38;;;;;;;5.100001;4.299999;;;;;;;4.79;76.03906;94724.72;;;;
2022/05/30 00:34:40;;;;;;;5.100001;4.299999;;;;;;;4.79;76.03906;94724.72;;;;
2022/05/30 00:35:41;;;;;;;5.100001;4.299999;;;;;;;4.79;76.03906;94724.72;;;;
2022/05/30 00:36:43;;;;;;;4.75;4.15;;;;;;;4.73;76.18652;94712.41;;;;
2022/05/30 00:37:44;;;;;;;4.75;4.15;;;;;;;4.73;76.18652;94712.41;;;;
2022/05/30 00:38:44;;;;;;;4.75;4.15;;;;;;;4.73;76.18652;94712.41;;;;
2022/05/30 00:39:45;;;;;;;4.75;4.15;;;;;;;4.73;76.18652;94712.41;;;;
2022/05/30 00:40:45;;;;;;;4.75;4.15;;;;;;;4.73;76.18652;94712.41;;;;
2022/05/30 00:41:46;;;;;;;4.75;4.15;;;;;;;4.73;76.18652;94712.41;;;;
2022/05/30 00:42:47;;;;;;;4.75;4.15;;;;;;;4.73;76.18652;94712.41;;;;
2022/05/30 00:43:47;;;;;;;4.75;4.15;;;;;;;4.73;76.18652;94712.41;;;;
2022/05/30 00:44:48;;;;;;;4.75;4.15;;;;;;;4.73;76.18652;94712.41;;;;
2022/05/30 00:45:49;;;;;;;4.75;4.15;;;;;;;4.73;76.18652;94712.41;;;;
2022/05/30 00:46:51;;;;;;;4.75;4.15;;;;;;;4.73;76.18652;94712.41;;;;
2022/05/30 00:47:51;;;;;;;4.450001;4.050001;;;;;;;4.7;76.23438;94718.02;;;;
2022/05/30 00:48:52;;;;;;;4.450001;4.050001;;;;;;;4.7;76.23438;94718.02;;;;
2022/05/30 00:49:56;;;;;;;4.450001;4.050001;;;;;;;4.7;76.23438;94718.02;;;;
2022/05/30 00:50:56;;;;;;;4.450001;4.050001;;;;;;;4.7;76.23438;94718.02;;;;
2022/05/30 00:52:05;;;;;;;4.450001;4.050001;;;;;;;4.7;76.23438;94718.02;;;;
2022/05/30 00:53:09;;;;;;;4.450001;4.050001;;;;;;;4.7;76.23438;94718.02;;;;
2022/05/30 00:54:10;;;;;;;4.450001;4.050001;;;;;;;4.7;76.23438;94718.02;;;;
2022/05/30 00:55:17;;;;;;;4.450001;4.050001;;;;;;;4.7;76.23438;94718.02;;;;
2022/05/30 00:56:21;;;;;;;4.450001;4.050001;;;;;;;4.7;76.23438;94718.02;;;;
2022/05/30 00:57:25;;;;;;;4.450001;4.050001;;;;;;;4.7;76.23438;94718.02;;;;
2022/05/30 00:58:29;;;;;;;4.55;4.15;;;;;;;4.56;76.32617;94713.67;;;;
2022/05/30 00:59:33;;;;;;;4.55;4.15;;;;;;;4.56;76.32617;94713.67;;;;
2022/05/30 01:00:34;;;;;;;4.55;4.15;;;;;;;4.56;76.32617;94713.67;;;;
2022/05/30 01:01:35;;;;;;;4.55;4.15;;;;;;;4.56;76.32617;94713.67;;;;
2022/05/30 01:02:36;;;;;;;4.55;4.15;;;;;;;4.56;76.32617;94713.67;;;;
2022/05/30 01:08:53;;;;;;;4.550001;4.1;;;;;;;4.49;76.43164;94697.91;;;;
2022/05/30 01:09:54;;;;;;;4.550001;4.1;;;;;;;4.49;76.43164;94697.91;;;;
2022/05/30 01:10:55;;;;;;;4.550001;4.1;;;;;;;4.49;76.43164;94697.91;;;;
2022/05/30 01:11:56;;;;;;;4.550001;4.1;;;;;;;4.49;76.43164;94697.91;;;;
2022/05/30 01:12:59;;;;;;;4.550001;4.1;;;;;;;4.49;76.43164;94697.91;;;;
2022/05/30 01:14:00;;;;;;;4.550001;4.1;;;;;;;4.49;76.43164;94697.91;;;;
2022/05/30 01:15:00;;;;;;;4.550001;4.1;;;;;;;4.49;76.43164;94697.91;;;;
2022/05/30 01:16:00;;;;;;;4.550001;4.1;;;;;;;4.49;76.43164;94697.91;;;;
2022/05/30 01:17:02;;;;;;;4.550001;4.1;;;;;;;4.49;76.43164;94697.91;;;;
2022/05/30 01:18:05;;;;;;;4.550001;4.1;;;;;;;4.49;76.43164;94697.91;;;;
2022/05/30 01:19:15;;;;;;;4.9;4.1;;;;;;;4.34;76.48926;94690.66;;;;
2022/05/30 01:20:26;;;;;;;4.9;4.1;;;;;;;4.34;76.48926;94690.66;;;;
2022/05/30 01:21:36;;;;;;;4.9;4.1;;;;;;;4.34;76.48926;94690.66;;;;
2022/05/30 01:22:51;;;;;;;4.9;4.1;;;;;;;4.34;76.48926;94690.66;;;;
2022/05/30 01:24:14;;;;;;;4.9;4.1;;;;;;;4.34;76.48926;94690.66;;;;
2022/05/30 01:25:29;;;;;;;4.9;4.1;;;;;;;4.34;76.48926;94690.66;;;;
2022/05/30 01:26:48;;;;;;;4.9;4.1;;;;;;;4.34;76.48926;94690.66;;;;
2022/05/30 01:28:03;;;;;;;4.9;4.1;;;;;;;4.34;76.48926;94690.66;;;;
2022/05/30 01:29:09;;;;;;;4.9;4.1;;;;;;;4.34;76.48926;94690.66;;;;
2022/05/30 01:30:16;;;;;;;4.2;3.8;;;;;;;4.29;76.64063;94680.36;;;;
2022/05/30 01:31:17;;;;;;;4.2;3.8;;;;;;;4.29;76.64063;94680.36;;;;
2022/05/30 01:32:18;;;;;;;4.2;3.8;;;;;;;4.29;76.64063;94680.36;;;;
2022/05/30 01:33:20;;;;;;;4.2;3.8;;;;;;;4.29;76.64063;94680.36;;;;
2022/05/30 01:34:22;;;;;;;4.2;3.8;;;;;;;4.29;76.64063;94680.36;;;;
2022/05/30 01:35:24;;;;;;;4.2;3.8;;;;;;;4.29;76.64063;94680.36;;;;
2022/05/30 01:36:27;;;;;;;4.2;3.8;;;;;;;4.29;76.64063;94680.36;;;;
2022/05/30 01:37:30;;;;;;;4.2;3.8;;;;;;;4.29;76.64063;94680.36;;;;
2022/05/30 01:38:30;;;;;;;4.2;3.8;;;;;;;4.29;76.64063;94680.36;;;;
2022/05/30 01:39:31;;;;;;;4.2;3.8;;;;;;;4.29;76.64063;94680.36;;;;
2022/05/30 01:40:31;;;;;;;4.2;3.8;;;;;;;4.29;76.64063;94680.36;;;;
2022/05/30 01:41:32;;;;;;;4.549999;3.95;;;;;;;4.19;76.71777;94669.89;;;;
2022/05/30 01:42:33;;;;;;;4.549999;3.95;;;;;;;4.19;76.71777;94669.89;;;;
2022/05/30 01:43:33;;;;;;;4.549999;3.95;;;;;;;4.19;76.71777;94669.89;;;;
2022/05/30 01:44:34;;;;;;;4.549999;3.95;;;;;;;4.19;76.71777;94669.89;;;;
2022/05/30 01:45:35;;;;;;;4.549999;3.95;;;;;;;4.19;76.71777;94669.89;;;;
2022/05/30 01:46:35;;;;;;;4.549999;3.95;;;;;;;4.19;76.71777;94669.89;;;;
2022/05/30 01:47:36;;;;;;;4.549999;3.95;;;;;;;4.19;76.71777;94669.89;;;;
2022/05/30 01:48:36;;;;;;;4.549999;3.95;;;;;;;4.19;76.71777;94669.89;;;;
2022/05/30 01:49:37;;;;;;;4.549999;3.95;;;;;;;4.19;76.71777;94669.89;;;;
2022/05/30 01:50:37;;;;;;;4.549999;3.95;;;;;;;4.19;76.71777;94669.89;;;;
2022/05/30 01:51:38;;;;;;;4.65;3.85;;;;;;;4.14;76.7832;94669.16;;;;
2022/05/30 01:52:38;;;;;;;4.65;3.85;;;;;;;4.14;76.7832;94669.16;;;;
2022/05/30 01:53:39;;;;;;;4.65;3.85;;;;;;;4.14;76.7832;94669.16;;;;
2022/05/30 01:54:40;;;;;;;4.65;3.85;;;;;;;4.14;76.7832;94669.16;;;;
2022/05/30 01:55:40;;;;;;;4.65;3.85;;;;;;;4.14;76.7832;94669.16;;;;
2022/05/30 01:56:40;;;;;;;4.65;3.85;;;;;;;4.14;76.7832;94669.16;;;;
2022/05/30 01:57:41;;;;;;;4.65;3.85;;;;;;;4.14;76.7832;94669.16;;;;
2022/05/30 01:58:41;;;;;;;4.65;3.85;;;;;;;4.14;76.7832;94669.16;;;;
2022/05/30 01:59:42;;;;;;;4.65;3.85;;;;;;;4.14;76.7832;94669.16;;;;
2022/05/30 02:00:43;;;;;;;4.65;3.85;;;;;;;4.14;76.7832;94669.16;;;;
2022/05/30 02:01:45;;;;;;;4.65;3.85;;;;;;;4.14;76.7832;94669.16;;;;
2022/05/30 02:02:46;;;;;;;4.4;4;;;;;;;4.08;76.8457;94652.51;;;;
2022/05/30 02:03:46;;;;;;;4.4;4;;;;;;;4.08;76.8457;94652.51;;;;
2022/05/30 02:04:50;;;;;;;4.4;4;;;;;;;4.08;76.8457;94652.51;;;;
2022/05/30 02:05:51;;;;;;;4.4;4;;;;;;;4.08;76.8457;94652.51;;;;
2022/05/30 02:06:51;;;;;;;4.4;4;;;;;;;4.08;76.8457;94652.51;;;;
2022/05/30 02:07:51;;;;;;;4.4;4;;;;;;;4.08;76.8457;94652.51;;;;
2022/05/30 02:08:52;;;;;;;4.4;4;;;;;;;4.08;76.8457;94652.51;;;;
2022/05/30 02:09:53;;;;;;;4.4;4;;;;;;;4.08;76.8457;94652.51;;;;
2022/05/30 02:10:53;;;;;;;4.4;4;;;;;;;4.08;76.8457;94652.51;;;;
2022/05/30 02:11:54;;;;;;;4.4;4;;;;;;;4.08;76.8457;94652.51;;;;
2022/05/30 02:12:54;;;;;;;4.299999;3.9;;;;;;;4.09;76.91113;94638.01;;;;
2022/05/30 02:13:55;;;;;;;4.299999;3.9;;;;;;;4.09;76.91113;94638.01;;;;
2022/05/30 02:14:55;;;;;;;4.299999;3.9;;;;;;;4.09;76.91113;94638.01;;;;
2022/05/30 02:17:00;;;;;;;4.299999;3.9;;;;;;;4.09;76.91113;94638.01;;;;
2022/05/30 02:18:01;;;;;;;4.299999;3.9;;;;;;;4.09;76.91113;94638.01;;;;
2022/05/30 02:19:01;;;;;;;4.299999;3.9;;;;;;;4.09;76.91113;94638.01;;;;
2022/05/30 02:20:03;;;;;;;4.299999;3.9;;;;;;;4.09;76.91113;94638.01;;;;
2022/05/30 02:21:05;;;;;;;4.299999;3.9;;;;;;;4.09;76.91113;94638.01;;;;
2022/05/30 02:22:06;;;;;;;4.299999;3.9;;;;;;;4.09;76.91113;94638.01;;;;
2022/05/30 02:23:09;;;;;;;4.299999;3.9;;;;;;;4.09;76.91113;94638.01;;;;
2022/05/30 02:24:09;;;;;;;4.249999;3.85;;;;;;;4.08;76.99414;94661.17;;;;
2022/05/30 02:25:12;;;;;;;4.249999;3.85;;;;;;;4.08;76.99414;94661.17;;;;
2022/05/30 02:26:13;;;;;;;4.249999;3.85;;;;;;;4.08;76.99414;94661.17;;;;
2022/05/30 02:27:13;;;;;;;4.249999;3.85;;;;;;;4.08;76.99414;94661.17;;;;
2022/05/30 02:28:16;;;;;;;4.249999;3.85;;;;;;;4.08;76.99414;94661.17;;;;
2022/05/30 02:29:17;;;;;;;4.249999;3.85;;;;;;;4.08;76.99414;94661.17;;;;
2022/05/30 02:30:18;;;;;;;4.249999;3.85;;;;;;;4.08;76.99414;94661.17;;;;
2022/05/30 02:31:18;;;;;;;4.249999;3.85;;;;;;;4.08;76.99414;94661.17;;;;
2022/05/30 02:32:19;;;;;;;4.249999;3.85;;;;;;;4.08;76.99414;94661.17;;;;
2022/05/30 02:38:34;;;;;;;4.45;4.05;;;;;;;4.2;77.02637;94663.69;;;;
2022/05/30 02:39:34;;;;;;;4.45;4.05;;;;;;;4.2;77.02637;94663.69;;;;
2022/05/30 02:40:35;;;;;;;4.45;4.05;;;;;;;4.2;77.02637;94663.69;;;;
2022/05/30 02:41:35;;;;;;;4.45;4.05;;;;;;;4.2;77.02637;94663.69;;;;
2022/05/30 02:42:37;;;;;;;4.45;4.05;;;;;;;4.2;77.02637;94663.69;;;;
2022/05/30 02:43:39;;;;;;;4.45;4.05;;;;;;;4.2;77.02637;94663.69;;;;
2022/05/30 02:44:40;;;;;;;4.65;4.15;;;;;;;4.24;77.09863;94661.8;;;;
2022/05/30 02:45:41;;;;;;;4.65;4.15;;;;;;;4.24;77.09863;94661.8;;;;
2022/05/30 02:46:42;;;;;;;4.65;4.15;;;;;;;4.24;77.09863;94661.8;;;;
2022/05/30 02:47:42;;;;;;;4.65;4.15;;;;;;;4.24;77.09863;94661.8;;;;
2022/05/30 02:48:43;;;;;;;4.65;4.15;;;;;;;4.24;77.09863;94661.8;;;;
2022/05/30 02:49:43;;;;;;;4.65;4.15;;;;;;;4.24;77.09863;94661.8;;;;
2022/05/30 02:50:45;;;;;;;4.65;4.15;;;;;;;4.24;77.09863;94661.8;;;;
2022/05/30 02:51:45;;;;;;;4.65;4.15;;;;;;;4.24;77.09863;94661.8;;;;
2022/05/30 02:52:46;;;;;;;4.65;4.15;;;;;;;4.24;77.09863;94661.8;;;;
2022/05/30 02:53:47;;;;;;;4.65;4.15;;;;;;;4.24;77.09863;94661.8;;;;
2022/05/30 02:54:48;;;;;;;4.65;4.15;;;;;;;4.24;77.09863;94661.8;;;;
2022/05/30 02:55:48;;;;;;;3.95;3.649999;;;;;;;4.37;77.16211;94661.91;;;;
2022/05/30 02:56:49;;;;;;;3.95;3.649999;;;;;;;4.37;77.16211;94661.91;;;;
2022/05/30 02:57:51;;;;;;;3.95;3.649999;;;;;;;4.37;77.16211;94661.91;;;;
2022/05/30 02:58:52;;;;;;;3.95;3.649999;;;;;;;4.37;77.16211;94661.91;;;;
2022/05/30 02:59:53;;;;;;;3.95;3.649999;;;;;;;4.37;77.16211;94661.91;;;;
2022/05/30 03:00:53;;;;;;;3.95;3.649999;;;;;;;4.37;77.16211;94661.91;;;;
2022/05/30 03:01:54;;;;;;;3.95;3.649999;;;;;;;4.37;77.16211;94661.91;;;;
2022/05/30 03:02:55;;;;;;;3.95;3.649999;;;;;;;4.37;77.16211;94661.91;;;;
2022/05/30 03:03:56;;;;;;;3.95;3.649999;;;;;;;4.37;77.16211;94661.91;;;;
2022/05/30 03:04:57;;;;;;;3.95;3.649999;;;;;;;4.37;77.16211;94661.91;;;;
2022/05/30 03:05:57;;;;;;;3.65;3.35;;;;;;;4.42;77.17285;94647.77;;;;
2022/05/30 03:06:58;;;;;;;3.65;3.35;;;;;;;4.42;77.17285;94647.77;;;;
2022/05/30 03:07:59;;;;;;;3.65;3.35;;;;;;;4.42;77.17285;94647.77;;;;
2022/05/30 03:09:03;;;;;;;3.65;3.35;;;;;;;4.42;77.17285;94647.77;;;;
2022/05/30 03:10:05;;;;;;;3.65;3.35;;;;;;;4.42;77.17285;94647.77;;;;
2022/05/30 03:11:06;;;;;;;3.65;3.35;;;;;;;4.42;77.17285;94647.77;;;;
2022/05/30 03:12:07;;;;;;;3.65;3.35;;;;;;;4.42;77.17285;94647.77;;;;
2022/05/30 03:13:08;;;;;;;3.65;3.35;;;;;;;4.42;77.17285;94647.77;;;;
2022/05/30 03:14:09;;;;;;;3.65;3.35;;;;;;;4.42;77.17285;94647.77;;;;
2022/05/30 03:15:09;;;;;;;3.65;3.35;;;;;;;4.42;77.17285;94647.77;;;;
2022/05/30 03:16:10;;;;;;;3.65;3.35;;;;;;;4.42;77.17285;94647.77;;;;
2022/05/30 03:17:11;;;;;;;3.5;3.2;;;;;;;4.5;77.1748;94646.8;;;;
2022/05/30 03:18:12;;;;;;;3.5;3.2;;;;;;;4.5;77.1748;94646.8;;;;
2022/05/30 03:19:12;;;;;;;3.5;3.2;;;;;;;4.5;77.1748;94646.8;;;;
2022/05/30 03:20:13;;;;;;;3.5;3.2;;;;;;;4.5;77.1748;94646.8;;;;
2022/05/30 03:21:13;;;;;;;3.5;3.2;;;;;;;4.5;77.1748;94646.8;;;;
2022/05/30 03:22:13;;;;;;;3.5;3.2;;;;;;;4.5;77.1748;94646.8;;;;
2022/05/30 03:23:14;;;;;;;3.5;3.2;;;;;;;4.5;77.1748;94646.8;;;;
2022/05/30 03:24:14;;;;;;;3.5;3.2;;;;;;;4.5;77.1748;94646.8;;;;
2022/05/30 03:25:15;;;;;;;3.5;3.2;;;;;;;4.5;77.1748;94646.8;;;;
2022/05/30 03:26:17;;;;;;;3.5;3.2;;;;;;;4.5;77.1748;94646.8;;;;
2022/05/30 03:27:18;;;;;;;3.3;3;;;;;;;4.48;77.22461;94653.54;;;;
2022/05/30 03:28:18;;;;;;;3.3;3;;;;;;;4.48;77.22461;94653.54;;;;
2022/05/30 03:29:19;;;;;;;3.3;3;;;;;;;4.48;77.22461;94653.54;;;;
2022/05/30 03:30:19;;;;;;;3.3;3;;;;;;;4.48;77.22461;94653.54;;;;
2022/05/30 03:31:20;;;;;;;3.3;3;;;;;;;4.48;77.22461;94653.54;;;;
2022/05/30 03:32:21;;;;;;;3.3;3;;;;;;;4.48;77.22461;94653.54;;;;
2022/05/30 03:33:21;;;;;;;3.3;3;;;;;;;4.48;77.22461;94653.54;;;;
2022/05/30 03:34:22;;;;;;;3.3;3;;;;;;;4.48;77.22461;94653.54;;;;
2022/05/30 03:35:22;;;;;;;3.3;3;;;;;;;4.48;77.22461;94653.54;;;;
2022/05/30 03:36:25;;;;;;;3.3;3;;;;;;;4.48;77.22461;94653.54;;;;
2022/05/30 03:37:25;;;;;;;3.3;3;;;;;;;4.48;77.22461;94653.54;;;;
2022/05/30 03:38:26;;;;;;;3.400001;3.1;;;;;;;4.51;77.27246;94661;;;;
2022/05/30 03:39:26;;;;;;;3.400001;3.1;;;;;;;4.51;77.27246;94661;;;;
2022/05/30 03:40:27;;;;;;;3.400001;3.1;;;;;;;4.51;77.27246;94661;;;;
2022/05/30 03:41:27;;;;;;;3.400001;3.1;;;;;;;4.51;77.27246;94661;;;;
2022/05/30 03:42:28;;;;;;;3.400001;3.1;;;;;;;4.51;77.27246;94661;;;;
2022/05/30 03:43:28;;;;;;;3.400001;3.1;;;;;;;4.51;77.27246;94661;;;;
2022/05/30 03:44:29;;;;;;;3.400001;3.1;;;;;;;4.51;77.27246;94661;;;;
2022/05/30 03:45:29;;;;;;;3.400001;3.1;;;;;;;4.51;77.27246;94661;;;;
2022/05/30 03:46:30;;;;;;;3.400001;3.1;;;;;;;4.51;77.27246;94661;;;;
2022/05/30 03:47:32;;;;;;;3.400001;3.1;;;;;;;4.51;77.27246;94661;;;;
2022/05/30 03:48:36;;;;;;;3.400001;3.1;;;;;;;4.51;77.27246;94661;;;;
2022/05/30 03:49:36;;;;;;;3.8;3.5;;;;;;;4.52;77.41211;94659.99;;;;
2022/05/30 03:50:37;;;;;;;3.8;3.5;;;;;;;4.52;77.41211;94659.99;;;;
2022/05/30 03:51:39;;;;;;;3.8;3.5;;;;;;;4.52;77.41211;94659.99;;;;
2022/05/30 03:52:40;;;;;;;3.8;3.5;;;;;;;4.52;77.41211;94659.99;;;;
2022/05/30 03:53:41;;;;;;;3.8;3.5;;;;;;;4.52;77.41211;94659.99;;;;
2022/05/30 03:54:42;;;;;;;3.8;3.5;;;;;;;4.52;77.41211;94659.99;;;;
2022/05/30 03:55:43;;;;;;;3.8;3.5;;;;;;;4.52;77.41211;94659.99;;;;
2022/05/30 03:56:45;;;;;;;3.8;3.5;;;;;;;4.52;77.41211;94659.99;;;;
2022/05/30 03:57:45;;;;;;;3.8;3.5;;;;;;;4.52;77.41211;94659.99;;;;
2022/05/30 03:58:46;;;;;;;3.8;3.5;;;;;;;4.52;77.41211;94659.99;;;;
2022/05/30 03:59:47;;;;;;;3.7;3.4;;;;;;;4.64;77.48633;94660.69;;;;
2022/05/30 04:00:48;;;;;;;3.7;3.4;;;;;;;4.64;77.48633;94660.69;;;;
2022/05/30 04:01:48;;;;;;;3.7;3.4;;;;;;;4.64;77.48633;94660.69;;;;
2022/05/30 04:02:49;;;;;;;3.7;3.4;;;;;;;4.64;77.48633;94660.69;;;;
2022/05/30 04:03:49;;;;;;;3.7;3.4;;;;;;;4.64;77.48633;94660.69;;;;
2022/05/30 04:04:50;;;;;;;3.7;3.4;;;;;;;4.64;77.48633;94660.69;;;;
2022/05/30 04:05:50;;;;;;;3.7;3.4;;;;;;;4.64;77.48633;94660.69;;;;
2022/05/30 04:06:51;;;;;;;3.7;3.4;;;;;;;4.64;77.48633;94660.69;;;;
2022/05/30 04:07:51;;;;;;;3.7;3.4;;;;;;;4.64;77.48633;94660.69;;;;
2022/05/30 04:08:53;;;;;;;3.7;3.4;;;;;;;4.64;77.48633;94660.69;;;;
2022/05/30 04:09:53;;;;;;;3.7;3.4;;;;;;;4.64;77.48633;94660.69;;;;
2022/05/30 04:10:54;;;;;;;4.55;3.25;;;;;;;4.69;77.54785;94668.78;;;;
2022/05/30 04:11:54;;;;;;;4.55;3.25;;;;;;;4.69;77.54785;94668.78;;;;
2022/05/30 04:12:55;;;;;;;4.55;3.25;;;;;;;4.69;77.54785;94668.78;;;;
2022/05/30 04:14:00;;;;;;;4.55;3.25;;;;;;;4.69;77.54785;94668.78;;;;
2022/05/30 04:15:01;;;;;;;4.55;3.25;;;;;;;4.69;77.54785;94668.78;;;;
2022/05/30 04:16:03;;;;;;;4.55;3.25;;;;;;;4.69;77.54785;94668.78;;;;
2022/05/30 04:17:08;;;;;;;4.55;3.25;;;;;;;4.69;77.54785;94668.78;;;;
2022/05/30 04:18:09;;;;;;;4.55;3.25;;;;;;;4.69;77.54785;94668.78;;;;
2022/05/30 04:19:09;;;;;;;4.55;3.25;;;;;;;4.69;77.54785;94668.78;;;;
2022/05/30 04:20:10;;;;;;;4.55;3.25;;;;;;;4.69;77.54785;94668.78;;;;
2022/05/30 04:21:11;;;;;;;4.6;4.199999;;;;;;;4.89;77.65918;94672.35;;;;
2022/05/30 04:22:13;;;;;;;4.6;4.199999;;;;;;;4.89;77.65918;94672.35;;;;
2022/05/30 04:23:13;;;;;;;4.6;4.199999;;;;;;;4.89;77.65918;94672.35;;;;
2022/05/30 04:24:14;;;;;;;4.6;4.199999;;;;;;;4.89;77.65918;94672.35;;;;
2022/05/30 04:25:15;;;;;;;4.6;4.199999;;;;;;;4.89;77.65918;94672.35;;;;
2022/05/30 04:26:15;;;;;;;4.6;4.199999;;;;;;;4.89;77.65918;94672.35;;;;
2022/05/30 04:27:17;;;;;;;4.6;4.199999;;;;;;;4.89;77.65918;94672.35;;;;
2022/05/30 04:28:18;;;;;;;4.6;4.199999;;;;;;;4.89;77.65918;94672.35;;;;
2022/05/30 04:29:19;;;;;;;4.6;4.199999;;;;;;;4.89;77.65918;94672.35;;;;
2022/05/30 04:30:19;;;;;;;4.6;4.199999;;;;;;;4.89;77.65918;94672.35;;;;
2022/05/30 04:31:20;;;;;;;4.9;4.1;;;;;;;5.11;77.69824;94686.56;;;;
2022/05/30 04:32:22;;;;;;;4.9;4.1;;;;;;;5.11;77.69824;94686.56;;;;
2022/05/30 04:33:23;;;;;;;4.9;4.1;;;;;;;5.11;77.69824;94686.56;;;;
2022/05/30 04:34:23;;;;;;;4.9;4.1;;;;;;;5.11;77.69824;94686.56;;;;
2022/05/30 04:35:24;;;;;;;4.9;4.1;;;;;;;5.11;77.69824;94686.56;;;;
2022/05/30 04:36:24;;;;;;;4.9;4.1;;;;;;;5.11;77.69824;94686.56;;;;
2022/05/30 04:37:25;;;;;;;4.9;4.1;;;;;;;5.11;77.69824;94686.56;;;;
2022/05/30 04:38:27;;;;;;;4.9;4.1;;;;;;;5.11;77.69824;94686.56;;;;
2022/05/30 04:39:27;;;;;;;4.9;4.1;;;;;;;5.11;77.69824;94686.56;;;;
2022/05/30 04:40:28;;;;;;;4.9;4.1;;;;;;;5.11;77.69824;94686.56;;;;
2022/05/30 04:41:28;;;;;;;4.9;4.1;;;;;;;5.11;77.69824;94686.56;;;;
2022/05/30 04:42:29;;;;;;;3.7;3.4;;;;;;;5.39;77.63184;94697.8;;;;
2022/05/30 04:43:29;;;;;;;3.7;3.4;;;;;;;5.39;77.63184;94697.8;;;;
2022/05/30 04:44:31;;;;;;;3.7;3.4;;;;;;;5.39;77.63184;94697.8;;;;
2022/05/30 04:45:31;;;;;;;3.7;3.4;;;;;;;5.39;77.63184;94697.8;;;;
2022/05/30 04:46:32;;;;;;;3.7;3.4;;;;;;;5.39;77.63184;94697.8;;;;
2022/05/30 04:47:32;;;;;;;3.7;3.4;;;;;;;5.39;77.63184;94697.8;;;;
2022/05/30 04:48:33;;;;;;;3.7;3.4;;;;;;;5.39;77.63184;94697.8;;;;
2022/05/30 04:49:34;;;;;;;3.7;3.4;;;;;;;5.39;77.63184;94697.8;;;;
2022/05/30 04:50:34;;;;;;;3.7;3.4;;;;;;;5.39;77.63184;94697.8;;;;
2022/05/30 04:51:35;;;;;;;3.7;3.4;;;;;;;5.39;77.63184;94697.8;;;;
2022/05/30 04:52:35;;;;;;;3.7;3.4;;;;;;;5.39;77.63184;94697.8;;;;
2022/05/30 04:53:36;;;;;;;5.400001;4.45;;;;;;;5.52;77.62207;94684.34;;;;
2022/05/30 04:54:36;;;;;;;5.400001;4.45;;;;;;;5.52;77.62207;94684.34;;;;
2022/05/30 04:55:37;;;;;;;5.400001;4.45;;;;;;;5.52;77.62207;94684.34;;;;
2022/05/30 04:56:37;;;;;;;5.400001;4.45;;;;;;;5.52;77.62207;94684.34;;;;
2022/05/30 04:57:38;;;;;;;5.400001;4.45;;;;;;;5.52;77.62207;94684.34;;;;
2022/05/30 04:58:41;;;;;;;5.400001;4.45;;;;;;;5.52;77.62207;94684.34;;;;
2022/05/30 04:59:41;;;;;;;5.400001;4.45;;;;;;;5.52;77.62207;94684.34;;;;
2022/05/30 05:00:42;;;;;;;5.400001;4.45;;;;;;;5.52;77.62207;94684.34;;;;
2022/05/30 05:01:43;;;;;;;5.400001;4.45;;;;;;;5.52;77.62207;94684.34;;;;
2022/05/30 05:02:43;;;;;;;5.400001;4.45;;;;;;;5.52;77.62207;94684.34;;;;
2022/05/30 05:03:44;;;;;;;4.95;4.45;;;;;;;5.76;77.77246;94690.88;;;;
2022/05/30 05:04:45;;;;;;;4.95;4.45;;;;;;;5.76;77.77246;94690.88;;;;
2022/05/30 05:05:45;;;;;;;4.95;4.45;;;;;;;5.76;77.77246;94690.88;;;;
2022/05/30 05:06:46;;;;;;;4.95;4.45;;;;;;;5.76;77.77246;94690.88;;;;
2022/05/30 05:07:46;;;;;;;4.95;4.45;;;;;;;5.76;77.77246;94690.88;;;;
2022/05/30 05:08:53;;;;;;;4.95;4.45;;;;;;;5.76;77.77246;94690.88;;;;
2022/05/30 05:09:58;;;;;;;4.95;4.45;;;;;;;5.76;77.77246;94690.88;;;;
2022/05/30 05:11:03;;;;;;;4.95;4.45;;;;;;;5.76;77.77246;94690.88;;;;
2022/05/30 05:12:15;;;;;;;4.95;4.45;;;;;;;5.76;77.77246;94690.88;;;;
2022/05/30 05:13:16;;;;;;;4.95;4.45;;;;;;;5.76;77.77246;94690.88;;;;
2022/05/30 05:14:16;;;;;;;5.85;4.75;;;;;;;6.04;77.87793;94685.86;;;;
2022/05/30 05:15:16;;;;;;;5.85;4.75;;;;;;;6.04;77.87793;94685.86;;;;
2022/05/30 05:16:17;;;;;;;5.85;4.75;;;;;;;6.04;77.87793;94685.86;;;;
2022/05/30 05:17:21;;;;;;;5.85;4.75;;;;;;;6.04;77.87793;94685.86;;;;
2022/05/30 05:18:21;;;;;;;5.85;4.75;;;;;;;6.04;77.87793;94685.86;;;;
2022/05/30 05:19:22;;;;;;;5.85;4.75;;;;;;;6.04;77.87793;94685.86;;;;
2022/05/30 05:20:23;;;;;;;5.85;4.75;;;;;;;6.04;77.87793;94685.86;;;;
2022/05/30 05:21:24;;;;;;;5.85;4.75;;;;;;;6.04;77.87793;94685.86;;;;
2022/05/30 05:22:27;;;;;;;5.85;4.75;;;;;;;6.04;77.87793;94685.86;;;;
2022/05/30 05:23:27;;;;;;;5.85;4.75;;;;;;;6.04;77.87793;94685.86;;;;
2022/05/30 05:24:28;;;;;;;5.85;4.75;;;;;;;6.04;77.87793;94685.86;;;;
2022/05/30 05:25:28;;;;;;;5.849999;5.249999;;;;;;;6.47;77.94238;94691.96;;;;
2022/05/30 05:26:29;;;;;;;5.849999;5.249999;;;;;;;6.47;77.94238;94691.96;;;;
2022/05/30 05:27:30;;;;;;;5.849999;5.249999;;;;;;;6.47;77.94238;94691.96;;;;
2022/05/30 05:28:30;;;;;;;5.849999;5.249999;;;;;;;6.47;77.94238;94691.96;;;;
2022/05/30 05:29:30;;;;;;;5.849999;5.249999;;;;;;;6.47;77.94238;94691.96;;;;
2022/05/30 05:30:31;;;;;;;5.849999;5.249999;;;;;;;6.47;77.94238;94691.96;;;;
2022/05/30 05:31:33;;;;;;;5.849999;5.249999;;;;;;;6.47;77.94238;94691.96;;;;
2022/05/30 05:32:34;;;;;;;5.849999;5.249999;;;;;;;6.47;77.94238;94691.96;;;;
2022/05/30 05:33:35;;;;;;;5.849999;5.249999;;;;;;;6.47;77.94238;94691.96;;;;
2022/05/30 05:34:36;;;;;;;5.849999;5.249999;;;;;;;6.47;77.94238;94691.96;;;;
2022/05/30 05:35:36;;;;;;;6.950001;5.5;;;;;;;6.96;77.70215;94696.7;;;;
2022/05/30 05:36:40;;;;;;;6.950001;5.5;;;;;;;6.96;77.70215;94696.7;;;;
2022/05/30 05:37:43;;;;;;;6.950001;5.5;;;;;;;6.96;77.70215;94696.7;;;;
2022/05/30 05:38:44;;;;;;;6.950001;5.5;;;;;;;6.96;77.70215;94696.7;;;;
2022/05/30 05:39:47;;;;;;;6.950001;5.5;;;;;;;6.96;77.70215;94696.7;;;;
2022/05/30 05:40:48;;;;;;;6.950001;5.5;;;;;;;6.96;77.70215;94696.7;;;;
2022/05/30 05:41:48;;;;;;;6.950001;5.5;;;;;;;6.96;77.70215;94696.7;;;;
2022/05/30 05:42:49;;;;;;;6.950001;5.5;;;;;;;6.96;77.70215;94696.7;;;;
2022/05/30 05:43:49;;;;;;;6.950001;5.5;;;;;;;6.96;77.70215;94696.7;;;;
2022/05/30 05:44:50;;;;;;;6.950001;5.5;;;;;;;6.96;77.70215;94696.7;;;;
2022/05/30 05:45:51;;;;;;;6.950001;5.5;;;;;;;6.96;77.70215;94696.7;;;;
2022/05/30 05:46:51;;;;;;;4.7;3.8;;;;;;;7.52;77.62988;94690.38;;;;
2022/05/30 05:47:56;;;;;;;4.7;3.8;;;;;;;7.52;77.62988;94690.38;;;;
2022/05/30 05:48:56;;;;;;;4.7;3.8;;;;;;;7.52;77.62988;94690.38;;;;
2022/05/30 05:49:58;;;;;;;4.7;3.8;;;;;;;7.52;77.62988;94690.38;;;;
2022/05/30 05:50:58;;;;;;;4.7;3.8;;;;;;;7.52;77.62988;94690.38;;;;
2022/05/30 05:51:59;;;;;;;4.7;3.8;;;;;;;7.52;77.62988;94690.38;;;;
2022/05/30 05:52:59;;;;;;;4.7;3.8;;;;;;;7.52;77.62988;94690.38;;;;
2022/05/30 05:54:00;;;;;;;4.7;3.8;;;;;;;7.52;77.62988;94690.38;;;;
2022/05/30 05:55:00;;;;;;;4.7;3.8;;;;;;;7.52;77.62988;94690.38;;;;
2022/05/30 05:56:01;;;;;;;4.7;3.8;;;;;;;7.52;77.62988;94690.38;;;;
2022/05/30 05:57:09;;;;;;;5.199999;3.65;;;;;;;7.93;77.48828;94673.85;;;;
2022/05/30 05:58:10;;;;;;;5.199999;3.65;;;;;;;7.93;77.48828;94673.85;;;;
2022/05/30 05:59:10;;;;;;;5.199999;3.65;;;;;;;7.93;77.48828;94673.85;;;;
2022/05/30 06:00:10;;;;;;;5.199999;3.65;;;;;;;7.93;77.48828;94673.85;;;;
2022/05/30 06:01:13;;;;;;;5.199999;3.65;;;;;;;7.93;77.48828;94673.85;;;;